OERK/RUH METAR and TAF weather

Enter ICAO airport designator
Station Type Date Time Source
OERK METAR 2024/04/15 09:00 UTC NOAA

OERK 150900Z 14012G22KT 5000 BLDU NSC 30/01 Q1009 NOSIG


Station Type Date Time Source
OERK Decoded METAR 2024/04/15 09:00 UTC NOAA

King Khaled International Airport, Saudi Arabia (OERK) 24-56N 046-43E 612M
Apr 15, 2024 - 05:00 AM EDT / 2024.04.15 0900 UTC
Wind: from the SE (140 degrees) at 14 MPH (12 KT) gusting to 25 MPH (22 KT):0
Visibility: 3 mile(s):0
Weather: blowing widespread dust
Temperature: 86 F (30 C)
Dew Point: 33 F (1 C)
Relative Humidity: 15%
Pressure (altimeter): 29.80 in. Hg (1009 hPa)
ob: OERK 150900Z 14012G22KT 5000 BLDU NSC 30/01 Q1009 NOSIG
cycle: 9

Station Type Date Time Source
OERK TAF 2024/04/15 06:09 UTC NOAA